Time;durP1;ratioP1;P1;durP2;ratioP2;P2;SDS_P1;SDS_P2;PMS_P1;PMS_P2;Temp;Humidity;BMP_temperature;BMP_pressure;BME280_temperature;BME280_humidity;BME280_pressure;Samples;Min_cycle;Max_cycle;Signal;HPM_P1;HPM_P2
2021/12/07 00:02:03;;;;;;;7.97;4.43;;;;;;;2.23;nan;100476.56;5099177;28;20218;-70
2021/12/07 00:04:29;;;;;;;8.10;4.57;;;;;;;2.14;nan;100459.19;5122351;22;20493;-70
2021/12/07 00:06:54;;;;;;;7.87;5.13;;;;;;;1.81;nan;100462.59;5116523;28;20420;-72
2021/12/07 00:09:20;;;;;;;7.43;4.73;;;;;;;2.22;nan;100458.13;5116767;27;20200;-73
2021/12/07 00:11:48;;;;;;;10.80;5.10;;;;;;;2.16;nan;100456.50;5097983;28;20183;-72
2021/12/07 00:14:15;;;;;;;8.33;4.87;;;;;;;1.81;nan;100454.72;5114876;28;20202;-72
2021/12/07 00:16:42;;;;;;;8.57;5.20;;;;;;;2.30;nan;100458.81;5116425;28;20591;-72
2021/12/07 00:35:56;;;;;;;10.27;6.00;;;;;;;1.98;nan;100420.97;5116026;28;20430;-72
2021/12/07 00:38:24;;;;;;;7.73;4.63;;;;;;;2.00;nan;100421.81;5115812;28;20464;-72
2021/12/07 00:40:50;;;;;;;10.77;5.03;;;;;;;1.79;nan;100409.16;5114408;28;20173;-72
2021/12/07 00:43:16;;;;;;;6.40;4.67;;;;;;;1.91;nan;100418.53;5114468;28;20445;-72
2021/12/07 00:45:45;;;;;;;8.27;4.87;;;;;;;1.65;nan;100420.00;5114183;28;20413;-72
2021/12/07 00:48:12;;;;;;;7.80;4.83;;;;;;;1.80;nan;100421.41;5097755;28;20343;-71
2021/12/07 00:50:39;;;;;;;9.80;5.27;;;;;;;1.87;nan;100433.53;5114373;28;20486;-72
2021/12/07 00:53:05;;;;;;;8.07;5.20;;;;;;;2.03;nan;100403.31;5114511;28;20429;-72
2021/12/07 00:55:34;;;;;;;10.10;5.30;;;;;;;1.82;nan;100390.66;5115314;28;20413;-71
2021/12/07 00:58:00;;;;;;;8.97;5.23;;;;;;;1.85;nan;100403.75;5115800;28;20416;-73
2021/12/07 01:00:28;;;;;;;8.93;5.33;;;;;;;2.09;nan;100397.88;5114046;28;20427;-73
2021/12/07 01:02:54;;;;;;;9.00;5.53;;;;;;;1.90;nan;100386.09;5115146;28;20462;-73
2021/12/07 01:05:26;;;;;;;7.93;4.93;;;;;;;1.76;nan;100388.19;5114620;28;20395;-72
2021/12/07 01:08:09;;;;;;;8.87;5.13;;;;;;;1.81;nan;100391.56;5114648;28;20163;-72
2021/12/07 01:24:40;;;;;;;6.63;4.93;;;;;;;1.82;nan;100393.28;5114163;28;20412;-74
2021/12/07 01:27:04;;;;;;;10.70;5.03;;;;;;;1.43;nan;100359.13;5113853;28;20473;-73
2021/12/07 01:29:30;;;;;;;7.83;5.10;;;;;;;1.42;nan;100378.44;5113791;28;20528;-73
2021/12/07 01:32:09;;;;;;;8.27;4.87;;;;;;;1.00;nan;100372.34;5115037;28;20812;-72
2021/12/07 01:45:23;;;;;;;9.10;5.93;;;;;;;1.05;nan;100372.25;5114431;28;20201;-72
2021/12/07 02:00:47;;;;;;;13.80;8.40;;;;;;;1.47;nan;100370.44;5114378;28;20398;-72
2021/12/07 02:03:13;;;;;;;13.03;8.23;;;;;;;1.34;nan;100375.13;5112795;28;20479;-72
2021/12/07 02:05:38;;;;;;;14.13;8.07;;;;;;;1.37;nan;100348.75;5112063;28;20437;-72
2021/12/07 02:08:04;;;;;;;13.37;8.60;;;;;;;1.92;nan;100365.88;5113699;28;20177;-72
2021/12/07 02:10:31;;;;;;;15.13;8.93;;;;;;;1.53;nan;100344.88;5112665;28;20180;-73
2021/12/07 02:13:03;;;;;;;15.90;9.83;;;;;;;1.78;nan;100339.00;5112576;28;20267;-72
2021/12/07 02:15:29;;;;;;;19.50;11.07;;;;;;;2.12;nan;100339.88;5113111;28;20764;-72
2021/12/07 02:17:54;;;;;;;16.10;10.17;;;;;;;1.95;nan;100318.41;5095646;28;20427;-72
2021/12/07 02:20:21;;;;;;;17.20;10.03;;;;;;;1.95;nan;100352.63;5095617;28;20171;-72
2021/12/07 02:22:47;;;;;;;16.87;9.93;;;;;;;1.62;nan;100312.22;5113719;28;20175;-72
2021/12/07 02:25:15;;;;;;;17.77;10.83;;;;;;;2.05;nan;100326.94;5095488;28;20458;-72
2021/12/07 02:27:40;;;;;;;16.60;10.70;;;;;;;2.18;nan;100323.06;5112938;28;20190;-72
2021/12/07 02:30:09;;;;;;;18.07;11.43;;;;;;;2.24;nan;100322.91;5095296;28;20499;-72
2021/12/07 02:32:35;;;;;;;20.93;11.63;;;;;;;2.06;nan;100350.56;5112401;28;20172;-72
2021/12/07 02:35:01;;;;;;;19.07;11.13;;;;;;;1.91;nan;100356.25;5112306;28;20487;-72
2021/12/07 02:37:30;;;;;;;21.70;12.30;;;;;;;2.28;nan;100365.84;5113996;28;20676;-72
2021/12/07 02:39:56;;;;;;;21.27;12.07;;;;;;;2.48;nan;100324.88;5112433;28;20587;-72
2021/12/07 02:42:22;;;;;;;21.27;12.17;;;;;;;2.33;nan;100350.78;5112354;28;20425;-71
2021/12/07 02:44:47;;;;;;;21.87;11.97;;;;;;;2.63;nan;100326.22;5112177;28;20427;-72
2021/12/07 02:47:12;;;;;;;21.20;11.03;;;;;;;2.31;nan;100339.41;5113494;28;20410;-72
2021/12/07 02:49:38;;;;;;;20.60;12.67;;;;;;;2.65;nan;100353.38;5095957;28;20192;-72
2021/12/07 02:52:04;;;;;;;21.07;13.13;;;;;;;2.71;nan;100361.13;5112508;28;20213;-71
2021/12/07 02:54:35;;;;;;;22.73;13.40;;;;;;;2.76;nan;100348.66;5095143;28;20197;-71
2021/12/07 02:57:01;;;;;;;21.83;13.43;;;;;;;2.87;nan;100355.41;5112284;28;20417;-72
2021/12/07 02:59:27;;;;;;;19.10;12.40;;;;;;;2.60;nan;100350.03;5113471;28;20458;-72
2021/12/07 03:02:01;;;;;;;26.30;14.17;;;;;;;3.14;nan;100362.50;5095163;28;20181;-71
2021/12/07 03:04:33;;;;;;;21.37;12.73;;;;;;;3.33;nan;100334.63;5112050;28;20212;-73
2021/12/07 03:07:14;;;;;;;21.50;13.57;;;;;;;3.08;nan;100337.19;5095864;28;20898;-72
2021/12/07 03:10:13;;;;;;;23.20;14.23;;;;;;;2.90;nan;100339.50;5111977;28;20450;-71
2021/12/07 03:26:15;;;;;;;21.13;13.13;;;;;;;2.04;nan;100376.06;5117304;28;20164;-72
2021/12/07 03:28:46;;;;;;;22.90;14.20;;;;;;;2.03;nan;100391.91;5115970;28;20189;-72
2021/12/07 03:31:13;;;;;;;25.37;14.67;;;;;;;2.55;nan;100395.81;5115896;28;20161;-71
2021/12/07 03:33:38;;;;;;;24.57;14.63;;;;;;;2.22;nan;100385.25;5117435;27;20460;-72
2021/12/07 03:36:05;;;;;;;20.93;13.57;;;;;;;2.28;nan;100398.28;5098591;28;20194;-72
2021/12/07 03:38:30;;;;;;;23.10;14.57;;;;;;;2.36;nan;100411.25;5117345;28;20247;-72
2021/12/07 03:40:56;;;;;;;21.33;13.63;;;;;;;1.78;nan;100400.41;5098739;28;20172;-71
2021/12/07 03:43:21;;;;;;;18.67;11.07;;;;;;;1.81;nan;100428.41;5115817;28;20196;-73
2021/12/07 03:45:47;;;;;;;24.57;15.13;;;;;;;2.31;nan;100421.06;5115417;28;20615;-72
2021/12/07 03:48:13;;;;;;;26.37;14.53;;;;;;;1.99;nan;100414.81;5117140;28;20200;-72
2021/12/07 03:50:39;;;;;;;22.53;13.87;;;;;;;1.94;nan;100423.72;5115949;28;20176;-72
2021/12/07 03:53:05;;;;;;;26.13;15.53;;;;;;;2.42;nan;100413.72;5116000;28;20425;-72
2021/12/07 03:55:30;;;;;;;24.90;13.63;;;;;;;1.81;nan;100409.97;5115663;28;20266;-73
2021/12/07 03:57:56;;;;;;;23.27;14.17;;;;;;;2.07;nan;100410.22;5115616;28;20433;-72
2021/12/07 04:00:24;;;;;;;21.70;13.77;;;;;;;2.27;nan;100427.31;5116831;28;20169;-72
2021/12/07 04:02:51;;;;;;;24.53;14.50;;;;;;;2.35;nan;100412.16;5116414;28;20212;-72
2021/12/07 04:05:18;;;;;;;25.00;14.70;;;;;;;2.58;nan;100411.53;5099119;28;20468;-72
2021/12/07 04:07:43;;;;;;;25.23;15.03;;;;;;;2.28;nan;100400.94;5115378;28;20496;-72
2021/12/07 04:10:11;;;;;;;24.90;14.80;;;;;;;2.31;nan;100418.41;5115178;28;20251;-72
2021/12/07 04:12:37;;;;;;;23.57;14.57;;;;;;;2.78;nan;100414.50;5115196;28;20305;-73
2021/12/07 04:15:04;;;;;;;23.43;14.30;;;;;;;2.58;nan;100383.41;5115404;28;20177;-72
2021/12/07 04:17:30;;;;;;;24.43;15.33;;;;;;;2.42;nan;100413.72;5097898;28;20417;-72
2021/12/07 04:19:55;;;;;;;29.47;15.77;;;;;;;2.68;nan;100382.28;5116853;28;20402;-72
2021/12/07 04:22:20;;;;;;;24.63;16.13;;;;;;;2.73;nan;100383.00;5116048;28;20547;-73
2021/12/07 04:24:45;;;;;;;26.87;16.07;;;;;;;2.58;nan;100388.69;5116638;28;20195;-73
2021/12/07 04:27:11;;;;;;;28.57;15.97;;;;;;;2.73;nan;100379.53;5116118;28;20640;-73
2021/12/07 04:29:36;;;;;;;27.17;16.43;;;;;;;2.35;nan;100397.22;5113906;28;20233;-73
2021/12/07 04:32:02;;;;;;;26.03;15.20;;;;;;;2.14;nan;100401.25;5116484;28;20181;-73
2021/12/07 04:34:27;;;;;;;24.90;15.23;;;;;;;2.39;nan;100400.63;5115431;28;20193;-73
2021/12/07 04:36:52;;;;;;;27.93;15.20;;;;;;;2.03;nan;100392.78;5114913;28;20535;-73
2021/12/07 04:39:17;;;;;;;26.73;15.03;;;;;;;1.83;nan;100447.66;5114880;28;20173;-73
2021/12/07 04:41:45;;;;;;;24.53;14.90;;;;;;;2.36;nan;100400.72;5116115;28;20166;-72
2021/12/07 04:44:11;;;;;;;22.33;14.17;;;;;;;1.50;nan;100431.75;5098437;28;20201;-72
2021/12/07 04:47:26;;;;;;;26.53;15.37;;;;;;;2.08;nan;100426.88;5115874;28;20407;-74
2021/12/07 05:00:05;;;;;;;28.23;16.77;;;;;;;2.50;nan;100448.63;5116033;28;20882;-72
2021/12/07 05:02:31;;;;;;;27.97;16.57;;;;;;;1.49;nan;100440.56;5135189;28;20462;-72
2021/12/07 05:04:56;;;;;;;29.17;16.63;;;;;;;1.94;nan;100465.84;5115665;28;20424;-72
2021/12/07 05:07:30;;;;;;;26.30;15.87;;;;;;;2.43;nan;100449.69;5116213;28;20413;-65
2021/12/07 05:12:44;;;;;;;28.17;16.93;;;;;;;2.77;nan;100418.06;5115479;28;20940;-65
2021/12/07 05:15:23;;;;;;;27.80;15.67;;;;;;;2.04;nan;100420.84;5115525;28;20391;-64
2021/12/07 05:18:22;;;;;;;28.70;17.03;;;;;;;2.15;nan;100418.78;5115641;28;20395;-64
2021/12/07 05:34:36;;;;;;;23.97;14.20;;;;;;;1.60;nan;100444.69;5114094;28;20464;-71
2021/12/07 05:37:38;;;;;;;18.73;11.07;;;;;;;0.83;nan;100430.53;5114355;28;20424;-72
2021/12/07 05:40:12;;;;;;;26.90;15.77;;;;;;;1.51;nan;100428.22;5115250;28;20384;-72
2021/12/07 05:42:38;;;;;;;26.13;15.47;;;;;;;1.36;nan;100449.59;5114056;28;20453;-73
2021/12/07 05:45:06;;;;;;;26.60;15.20;;;;;;;1.79;nan;100443.34;5114794;28;20409;-73
2021/12/07 05:47:31;;;;;;;28.60;17.03;;;;;;;1.73;nan;100436.47;5114923;28;20412;-73
2021/12/07 05:49:56;;;;;;;25.37;16.50;;;;;;;1.76;nan;100432.91;5113551;28;20449;-72
2021/12/07 05:52:22;;;;;;;24.57;14.57;;;;;;;1.54;nan;100424.66;5114930;28;20297;-72
2021/12/07 05:54:47;;;;;;;26.93;14.03;;;;;;;1.51;nan;100443.16;5115128;28;20262;-73
2021/12/07 05:57:13;;;;;;;24.07;15.53;;;;;;;1.82;nan;100435.41;5097089;28;20182;-72
2021/12/07 05:59:39;;;;;;;32.73;14.93;;;;;;;1.35;nan;100445.22;5114531;28;20227;-73
2021/12/07 06:02:04;;;;;;;25.20;14.37;;;;;;;1.08;nan;100444.03;5096414;28;20593;-73
2021/12/07 06:04:30;;;;;;;25.30;14.30;;;;;;;1.37;nan;100451.31;5137368;22;20625;-68
2021/12/07 06:06:57;;;;;;;24.13;15.03;;;;;;;1.32;nan;100444.44;5114629;28;20180;-69
2021/12/07 06:09:22;;;;;;;26.93;14.67;;;;;;;1.73;nan;100452.25;5113847;28;20819;-68
2021/12/07 06:11:49;;;;;;;24.83;13.10;;;;;;;1.19;nan;100438.56;5114352;28;20408;-68
2021/12/07 06:14:18;;;;;;;21.33;13.57;;;;;;;1.16;nan;100421.09;5114025;28;20199;-69
2021/12/07 06:16:44;;;;;;;17.70;11.40;;;;;;;1.14;nan;100433.41;5114925;28;20528;-68
2021/12/07 06:19:09;;;;;;;22.50;13.43;;;;;;;1.40;nan;100432.84;5113690;28;20454;-68
2021/12/07 06:21:34;;;;;;;25.43;13.67;;;;;;;1.55;nan;100445.66;5118286;28;20682;-68
2021/12/07 06:24:00;;;;;;;25.97;14.20;;;;;;;2.11;nan;100432.06;5118190;28;20248;-68
2021/12/07 06:26:25;;;;;;;22.93;12.43;;;;;;;1.15;nan;100432.50;5098224;28;20185;-68
2021/12/07 06:28:50;;;;;;;21.23;13.07;;;;;;;1.57;nan;100437.75;5117029;28;20555;-68
2021/12/07 06:31:16;;;;;;;20.57;12.33;;;;;;;1.17;nan;100462.25;5096918;28;20175;-69
2021/12/07 06:33:41;;;;;;;24.63;13.63;;;;;;;2.00;nan;100465.69;5114729;28;20192;-69
2021/12/07 06:36:07;;;;;;;26.23;13.30;;;;;;;2.14;nan;100442.53;5113839;28;20180;-69
2021/12/07 06:38:33;;;;;;;22.97;12.83;;;;;;;1.88;nan;100440.53;5114192;28;20262;-69
2021/12/07 06:41:00;;;;;;;25.70;14.60;;;;;;;2.10;nan;100452.25;5112935;28;20415;-69
2021/12/07 06:43:26;;;;;;;22.97;14.00;;;;;;;2.25;nan;100458.06;5114433;28;20434;-70
2021/12/07 06:45:52;;;;;;;19.43;12.67;;;;;;;2.15;nan;100457.41;5114330;28;20420;-69
2021/12/07 06:48:17;;;;;;;20.83;13.63;;;;;;;2.30;nan;100449.16;5113804;28;20774;-68
2021/12/07 06:50:43;;;;;;;21.10;12.57;;;;;;;2.26;nan;100439.59;5113765;28;20182;-69
2021/12/07 06:53:09;;;;;;;19.93;11.33;;;;;;;2.34;nan;100427.09;5095351;28;20183;-68
2021/12/07 06:55:34;;;;;;;20.27;12.17;;;;;;;2.01;nan;100425.31;5112654;28;20188;-69
2021/12/07 06:58:00;;;;;;;23.60;13.40;;;;;;;2.65;nan;100445.63;5113589;28;20454;-69
2021/12/07 07:00:25;;;;;;;20.70;12.27;;;;;;;2.69;nan;100447.25;5112347;28;20174;-69
2021/12/07 07:02:51;;;;;;;17.97;11.83;;;;;;;1.97;nan;100421.88;5113572;28;20708;-69
2021/12/07 07:05:17;;;;;;;20.60;13.07;;;;;;;2.44;nan;100475.13;5112373;28;20216;-68
2021/12/07 07:07:43;;;;;;;19.93;12.77;;;;;;;2.64;nan;100440.38;5112914;28;20650;-70
2021/12/07 07:10:11;;;;;;;17.37;12.23;;;;;;;2.34;nan;100439.41;5112376;28;20201;-68
2021/12/07 07:12:37;;;;;;;22.40;13.47;;;;;;;2.48;nan;100453.06;5114276;28;20459;-67
2021/12/07 07:15:04;;;;;;;21.90;13.47;;;;;;;2.48;nan;100466.25;5112599;28;20434;-69
2021/12/07 07:17:30;;;;;;;20.87;12.90;;;;;;;2.57;nan;100452.84;5113563;28;20174;-68
2021/12/07 07:19:55;;;;;;;18.07;11.67;;;;;;;2.74;nan;100473.47;5113742;28;20417;-69
2021/12/07 07:22:20;;;;;;;21.87;12.63;;;;;;;2.75;nan;100455.00;5112416;28;20184;-69
2021/12/07 07:24:46;;;;;;;21.00;12.57;;;;;;;3.09;nan;100459.34;5113355;28;20194;-70
2021/12/07 07:27:11;;;;;;;27.73;13.33;;;;;;;2.70;nan;100449.00;5112964;28;20182;-69
2021/12/07 07:29:36;;;;;;;19.23;12.37;;;;;;;2.25;nan;100452.81;5112601;28;20275;-69
2021/12/07 07:32:02;;;;;;;22.07;12.93;;;;;;;2.16;nan;100456.50;5114293;28;20184;-69
2021/12/07 07:34:27;;;;;;;21.10;13.07;;;;;;;2.24;nan;100446.69;5112416;28;20203;-68
2021/12/07 07:36:53;;;;;;;21.77;13.60;;;;;;;2.44;nan;100467.22;5112403;28;20231;-69
2021/12/07 07:39:18;;;;;;;23.30;14.03;;;;;;;2.50;nan;100475.84;5117735;28;20177;-68
2021/12/07 07:41:43;;;;;;;19.93;13.30;;;;;;;2.95;nan;100466.75;5118226;28;20184;-68
2021/12/07 07:44:09;;;;;;;21.73;12.97;;;;;;;2.11;nan;100480.31;5112469;28;20208;-69
2021/12/07 07:46:34;;;;;;;23.90;14.00;;;;;;;2.25;nan;100484.41;5113864;28;20542;-69
2021/12/07 07:49:00;;;;;;;22.23;13.97;;;;;;;2.46;nan;100465.44;5113747;28;20198;-69
2021/12/07 07:51:25;;;;;;;21.43;13.60;;;;;;;2.20;nan;100492.41;5113386;28;20221;-69
2021/12/07 07:53:51;;;;;;;26.10;15.20;;;;;;;2.87;nan;100493.31;5113400;28;20193;-69
2021/12/07 07:56:17;;;;;;;25.67;14.93;;;;;;;2.60;nan;100465.06;5112441;28;20260;-69
2021/12/07 07:58:43;;;;;;;23.83;14.80;;;;;;;3.16;nan;100497.81;5113508;28;20188;-69
2021/12/07 08:01:08;;;;;;;22.33;14.30;;;;;;;2.44;nan;100483.91;5113183;28;20187;-67
2021/12/07 08:03:35;;;;;;;25.73;15.43;;;;;;;2.05;nan;100496.28;5112023;28;20683;-68
2021/12/07 08:06:00;;;;;;;25.10;14.13;;;;;;;2.15;nan;100476.72;5115259;28;20185;-68
2021/12/07 08:08:25;;;;;;;24.10;14.33;;;;;;;2.32;nan;100492.13;5117127;28;20795;-69
2021/12/07 08:10:51;;;;;;;26.83;16.47;;;;;;;2.79;nan;100480.34;5115786;28;20201;-69
2021/12/07 08:13:16;;;;;;;25.37;15.33;;;;;;;2.72;nan;100475.28;5115203;28;20193;-68
2021/12/07 08:15:43;;;;;;;26.40;15.70;;;;;;;2.83;nan;100473.22;5116868;28;20181;-69
2021/12/07 08:18:13;;;;;;;24.77;15.37;;;;;;;2.54;nan;100486.28;5115436;28;20773;-68
2021/12/07 08:20:39;;;;;;;24.63;15.33;;;;;;;2.74;nan;100486.66;5115615;28;20637;-67
2021/12/07 08:23:04;;;;;;;28.07;16.17;;;;;;;3.09;nan;100498.91;5116588;28;20172;-68
2021/12/07 08:25:35;;;;;;;26.07;15.63;;;;;;;2.95;nan;100487.84;5098295;28;20508;-69
2021/12/07 08:28:01;;;;;;;26.97;15.93;;;;;;;2.79;nan;100505.84;5098370;28;20165;-69
2021/12/07 08:30:27;;;;;;;24.60;13.90;;;;;;;2.25;nan;100493.19;5115590;28;20463;-68
2021/12/07 08:32:53;;;;;;;23.80;13.90;;;;;;;2.45;nan;100484.78;5116754;28;20204;-69
2021/12/07 08:35:19;;;;;;;24.23;14.53;;;;;;;2.45;nan;100500.56;5117121;28;20173;-68
2021/12/07 08:37:48;;;;;;;23.40;15.00;;;;;;;3.03;nan;100485.88;5115338;28;20543;-69
2021/12/07 08:40:20;;;;;;;26.17;14.93;;;;;;;3.32;nan;100492.97;5116816;28;20230;-69
2021/12/07 08:42:46;;;;;;;22.97;14.10;;;;;;;3.24;nan;100476.50;5117234;28;20162;-69
2021/12/07 08:45:11;;;;;;;23.90;12.87;;;;;;;2.50;nan;100467.94;5115975;28;20194;-68
2021/12/07 08:47:37;;;;;;;22.20;13.53;;;;;;;3.21;nan;100476.59;5116842;28;20173;-68
2021/12/07 08:50:05;;;;;;;21.87;12.70;;;;;;;3.01;nan;100482.44;5115348;28;20247;-68
2021/12/07 08:52:30;;;;;;;17.70;10.33;;;;;;;2.23;nan;100480.91;5115519;28;20657;-69
2021/12/07 09:00:33;;;;;;;23.43;12.90;;;;;;;3.07;nan;100495.44;5117216;28;20400;-68
2021/12/07 09:02:58;;;;;;;20.10;11.87;;;;;;;2.45;nan;100483.00;5116077;28;20170;-69
2021/12/07 09:05:24;;;;;;;20.27;13.23;;;;;;;3.04;nan;100500.81;5116314;28;20497;-69
2021/12/07 09:07:50;;;;;;;19.07;11.80;;;;;;;2.91;nan;100499.38;5115975;28;20176;-69
2021/12/07 09:10:16;;;;;;;20.37;11.70;;;;;;;2.76;nan;100475.16;5114960;28;20212;-68
2021/12/07 09:12:41;;;;;;;20.37;13.97;;;;;;;3.49;nan;100485.44;5116063;28;20192;-69
2021/12/07 09:15:07;;;;;;;23.43;13.93;;;;;;;3.02;nan;100487.66;5115708;28;20667;-69
2021/12/07 09:17:33;;;;;;;23.17;14.60;;;;;;;3.30;nan;100466.63;5116010;28;20656;-69
2021/12/07 09:19:58;;;;;;;18.73;11.20;;;;;;;2.61;nan;100486.13;5114903;28;20179;-69
2021/12/07 09:22:24;;;;;;;26.57;14.07;;;;;;;2.89;nan;100465.16;5114710;28;20693;-68
2021/12/07 09:24:49;;;;;;;27.07;15.43;;;;;;;2.88;nan;100476.59;5114324;28;20190;-68
2021/12/07 09:27:14;;;;;;;28.63;16.50;;;;;;;3.67;nan;100491.94;5115781;28;20180;-69
2021/12/07 09:29:40;;;;;;;22.90;14.23;;;;;;;2.51;nan;100458.25;5115860;28;20246;-68
2021/12/07 09:32:06;;;;;;;25.83;15.00;;;;;;;3.32;nan;100474.50;5115683;28;20655;-69
2021/12/07 09:34:31;;;;;;;26.77;14.87;;;;;;;3.09;nan;100460.22;5113867;28;20305;-68
2021/12/07 09:36:57;;;;;;;20.80;11.47;;;;;;;2.40;nan;100426.94;5115547;28;20196;-68
2021/12/07 09:39:22;;;;;;;23.33;12.70;;;;;;;2.79;nan;100461.91;5114304;28;20181;-68
2021/12/07 09:41:48;;;;;;;21.47;12.43;;;;;;;2.65;nan;100445.63;5114463;28;20524;-68
2021/12/07 09:44:13;;;;;;;24.83;14.70;;;;;;;3.30;nan;100468.41;5114631;28;20555;-69
2021/12/07 09:46:40;;;;;;;23.37;13.53;;;;;;;3.73;nan;100460.97;5115252;28;20276;-68
2021/12/07 09:49:07;;;;;;;25.00;14.27;;;;;;;2.92;nan;100498.47;5114123;28;20201;-69
2021/12/07 09:51:33;;;;;;;22.40;12.77;;;;;;;2.76;nan;100461.13;5131202;27;20177;-69
2021/12/07 09:53:59;;;;;;;23.53;13.37;;;;;;;2.60;nan;100458.06;5116277;28;20196;-69
2021/12/07 09:56:26;;;;;;;23.77;14.83;;;;;;;3.25;nan;100486.13;5116901;28;20174;-69
2021/12/07 09:58:53;;;;;;;18.97;10.23;;;;;;;2.29;nan;100451.84;5113957;28;20357;-69
2021/12/07 10:01:19;;;;;;;21.80;13.43;;;;;;;2.65;nan;100458.78;5115267;28;20184;-67
2021/12/07 10:03:45;;;;;;;25.80;15.27;;;;;;;2.91;nan;100475.66;5115190;27;20216;-67
2021/12/07 10:06:10;;;;;;;24.87;16.00;;;;;;;3.10;nan;100453.16;5117471;28;20173;-68
2021/12/07 10:08:36;;;;;;;28.97;16.23;;;;;;;3.39;nan;100444.41;5117354;28;20197;-68
2021/12/07 10:11:04;;;;;;;27.03;14.80;;;;;;;2.94;nan;100459.75;5119544;27;20257;-69
2021/12/07 10:13:31;;;;;;;23.20;13.13;;;;;;;2.72;nan;100457.72;5115993;28;20693;-69
2021/12/07 10:15:58;;;;;;;27.27;16.57;;;;;;;3.06;nan;100480.53;5115079;28;20554;-68
2021/12/07 10:18:26;;;;;;;28.80;16.93;;;;;;;2.78;nan;100469.84;5097413;28;20696;-68
2021/12/07 10:20:54;;;;;;;26.67;16.57;;;;;;;2.68;nan;100469.25;5113828;28;20169;-69
2021/12/07 10:23:20;;;;;;;28.57;17.33;;;;;;;2.69;nan;100452.53;5113426;28;20200;-69
2021/12/07 10:25:54;;;;;;;25.93;15.30;;;;;;;2.83;nan;100446.88;5115747;28;20177;-69
2021/12/07 10:28:39;;;;;;;30.63;17.23;;;;;;;3.56;nan;100457.94;5114477;28;20169;-68
2021/12/07 10:31:16;;;;;;;29.87;16.97;;;;;;;3.30;nan;100445.53;5114610;28;20727;-68
2021/12/07 10:33:46;;;;;;;25.60;13.53;;;;;;;2.70;nan;100401.56;5114804;28;20426;-68
2021/12/07 10:36:15;;;;;;;29.37;17.67;;;;;;;3.24;nan;100445.72;5113566;28;20636;-69
2021/12/07 10:38:42;;;;;;;30.70;17.13;;;;;;;3.23;nan;100462.44;5114402;28;20411;-68
2021/12/07 10:41:09;;;;;;;29.03;16.13;;;;;;;2.96;nan;100442.13;5114677;28;20173;-68
2021/12/07 10:43:48;;;;;;;29.47;16.40;;;;;;;3.17;nan;100427.47;5113045;28;20540;-69
2021/12/07 10:46:28;;;;;;;28.93;16.13;;;;;;;3.05;nan;100411.09;5116719;28;20184;-69
2021/12/07 10:49:13;;;;;;;29.57;17.90;;;;;;;3.14;nan;100417.88;5118116;28;20193;-68
2021/12/07 10:51:40;;;;;;;30.97;16.20;;;;;;;3.39;nan;100434.72;5114869;28;20199;-68
2021/12/07 10:54:06;;;;;;;32.07;18.73;;;;;;;3.35;nan;100448.91;5114772;28;20225;-68
2021/12/07 10:56:37;;;;;;;33.13;18.43;;;;;;;2.75;nan;100441.81;5097440;28;20185;-67
2021/12/07 10:59:05;;;;;;;27.03;14.77;;;;;;;2.85;nan;100431.00;5116938;28;20627;-68
2021/12/07 11:01:51;;;;;;;33.70;19.10;;;;;;;4.53;nan;100469.81;5097514;28;20253;-68
2021/12/07 11:04:30;;;;;;;30.03;16.50;;;;;;;2.94;nan;100438.66;5115946;28;20206;-68
2021/12/07 11:07:12;;;;;;;32.23;15.47;;;;;;;3.73;nan;100465.38;5115453;28;20577;-69
2021/12/07 11:09:44;;;;;;;32.90;19.77;;;;;;;3.79;nan;100480.16;5114123;28;20197;-69
2021/12/07 11:12:13;;;;;;;32.97;17.87;;;;;;;3.21;nan;100471.31;5113248;28;20246;-68
2021/12/07 11:14:41;;;;;;;36.43;19.83;;;;;;;3.74;nan;100438.94;5112730;28;20197;-68
2021/12/07 11:17:08;;;;;;;34.40;19.13;;;;;;;3.38;nan;100454.09;5114151;28;20177;-68
2021/12/07 11:19:33;;;;;;;34.47;19.33;;;;;;;3.57;nan;100440.34;5112958;28;20166;-68
2021/12/07 11:21:59;;;;;;;27.03;14.80;;;;;;;3.34;nan;100412.88;5113793;28;20249;-68
2021/12/07 11:24:34;;;;;;;26.97;15.17;;;;;;;3.04;nan;100437.53;5112798;28;20193;-68
2021/12/07 11:29:59;;;;;;;35.47;20.50;;;;;;;3.39;nan;100437.38;5113918;28;20188;-68
2021/12/07 11:32:24;;;;;;;34.97;18.93;;;;;;;3.01;nan;100406.84;5114227;28;20405;-68
2021/12/07 11:34:49;;;;;;;41.37;20.07;;;;;;;3.22;nan;100429.06;5114207;28;20425;-68
2021/12/07 11:37:15;;;;;;;31.70;15.57;;;;;;;2.71;nan;100413.81;5114373;28;20237;-68
2021/12/07 11:39:47;;;;;;;37.50;20.90;;;;;;;3.57;nan;100451.75;5116688;28;20634;-68
2021/12/07 11:42:23;;;;;;;34.60;19.97;;;;;;;2.98;nan;100453.50;5117386;28;20162;-68
2021/12/07 11:44:50;;;;;;;38.27;20.63;;;;;;;3.16;nan;100450.34;5117250;28;20934;-68
2021/12/07 11:47:16;;;;;;;31.63;18.97;;;;;;;3.56;nan;100444.75;5117471;28;20402;-68
2021/12/07 11:49:41;;;;;;;35.17;20.20;;;;;;;3.36;nan;100412.84;5116432;28;20193;-68
2021/12/07 11:52:08;;;;;;;31.63;18.83;;;;;;;3.29;nan;100445.56;5115889;28;20324;-68
2021/12/07 11:54:40;;;;;;;33.33;19.40;;;;;;;3.12;nan;100415.28;5119764;28;20200;-69
2021/12/07 11:57:08;;;;;;;34.20;18.63;;;;;;;3.51;nan;100448.44;5119225;28;20642;-67
2021/12/07 11:59:34;;;;;;;33.77;17.17;;;;;;;2.62;nan;100431.66;5118556;28;20166;-68
2021/12/07 12:02:00;;;;;;;31.97;18.30;;;;;;;2.78;nan;100439.09;5117892;28;20547;-68
2021/12/07 12:04:25;;;;;;;33.20;16.80;;;;;;;2.19;nan;100422.22;5140019;22;20706;-70
2021/12/07 12:06:53;;;;;;;32.37;18.53;;;;;;;2.65;nan;100429.81;5098189;28;20188;-70
2021/12/07 12:09:20;;;;;;;34.90;19.37;;;;;;;3.37;nan;100411.94;5115679;28;20233;-70
2021/12/07 12:11:59;;;;;;;35.30;19.17;;;;;;;3.35;nan;100422.53;5097894;28;20539;-70
2021/12/07 12:14:46;;;;;;;33.60;18.87;;;;;;;3.86;nan;100440.31;5115106;28;20689;-72
2021/12/07 12:17:18;;;;;;;36.20;18.23;;;;;;;3.36;nan;100392.63;5132236;27;20922;-72
2021/12/07 12:20:01;;;;;;;35.70;18.67;;;;;;;3.09;nan;100423.28;5115722;28;20566;-70
2021/12/07 12:22:34;;;;;;;33.07;19.70;;;;;;;2.91;nan;100420.28;5116751;27;20398;-70
2021/12/07 12:25:07;;;;;;;25.40;13.57;;;;;;;2.76;nan;100426.88;5097677;28;20437;-69
2021/12/07 12:27:35;;;;;;;33.40;19.73;;;;;;;3.56;nan;100417.50;5115085;28;20168;-70
2021/12/07 12:30:16;;;;;;;33.03;19.37;;;;;;;3.21;nan;100429.97;5114535;28;20806;-70
2021/12/07 12:32:43;;;;;;;35.67;20.97;;;;;;;3.56;nan;100415.72;5116124;28;20387;-70
2021/12/07 12:35:10;;;;;;;34.07;19.93;;;;;;;3.05;nan;100439.25;5114512;28;20430;-68
2021/12/07 12:37:37;;;;;;;37.87;20.17;;;;;;;2.60;nan;100410.63;5097636;28;20272;-70
2021/12/07 12:40:10;;;;;;;34.87;18.30;;;;;;;2.77;nan;100425.97;5114468;28;20998;-70
2021/12/07 12:42:41;;;;;;;62.07;27.03;;;;;;;3.02;nan;100420.88;5097309;28;20474;-69
2021/12/07 12:45:25;;;;;;;41.53;22.77;;;;;;;3.41;nan;100422.34;5097318;28;20437;-68
2021/12/07 12:48:05;;;;;;;38.83;21.97;;;;;;;3.57;nan;100425.38;5114597;28;20443;-71
2021/12/07 12:50:43;;;;;;;40.30;22.17;;;;;;;2.94;nan;100433.38;5115585;28;20189;-71
2021/12/07 12:53:12;;;;;;;33.43;18.30;;;;;;;2.71;nan;100398.00;5116013;28;20421;-71
2021/12/07 12:55:56;;;;;;;37.40;21.50;;;;;;;3.18;nan;100437.97;5131905;27;20197;-70
2021/12/07 12:58:42;;;;;;;37.37;20.40;;;;;;;2.84;nan;100382.72;5097877;28;20281;-71
2021/12/07 13:01:16;;;;;;;34.80;21.23;;;;;;;3.15;nan;100401.16;5114683;28;20390;-70
2021/12/07 13:03:57;;;;;;;33.10;19.40;;;;;;;2.64;nan;100391.19;5097573;28;20214;-70
2021/12/07 13:06:25;;;;;;;33.90;18.97;;;;;;;2.54;nan;100416.03;5116110;28;20389;-71
2021/12/07 13:08:52;;;;;;;33.13;18.37;;;;;;;2.46;nan;100429.41;5115552;28;20453;-71
2021/12/07 13:11:34;;;;;;;38.20;21.33;;;;;;;2.96;nan;100418.38;5115861;28;20181;-71
2021/12/07 13:14:00;;;;;;;44.53;21.83;;;;;;;2.82;nan;100437.25;5114611;28;20667;-71
2021/12/07 13:16:26;;;;;;;34.47;20.83;;;;;;;2.86;nan;100436.25;5115049;28;20425;-70
2021/12/07 13:19:06;;;;;;;34.47;21.00;;;;;;;3.42;nan;100434.63;5114259;28;20256;-70
2021/12/07 13:21:36;;;;;;;37.37;20.20;;;;;;;3.39;nan;100429.44;5114407;28;20168;-70
2021/12/07 13:24:05;;;;;;;37.33;20.40;;;;;;;3.03;nan;100427.88;5114881;28;20490;-70